Grindstone Creek Rancheria, California
Current Conditions -  °F | °C
As of 5:15 AM on Friday 31 Oct 2014 (Local Time) from KCIC Reporting Station
Broken Clouds Broken Clouds  
Wind Chill: 63°   Ceiling: 11000
Heat Index: 63°   Visibility: 10mi
Dew Point: 50°   Wind: 14mph
Humidity: 63%   Direction: 160°SSE
Pressure: 29.84"   Gusts: NA
Location:  39.5562°N, 122.604°W
Report Text: KCIC 311215Z AUTO 16012KT 10SM FEW033 BKN110 17/10 A2984 RMK AO1
Loading
Personal Weather Stations






























Interactive Weather Map
Tropical Storm Tracking
New forecast layout! Learn more

10-Day Weather Forecast

Advertisements
Track Severe Weather on mobile